Flight Track Log - Related Links

Times and Time Zones

All times are in EDT time to prevent confusion due to time zone crossing. See the RPA4886 flight status page for this flight to view local times or setup timezone preferences in your user account.

Time Position Orientation Groundspeed Altitude Reporting Facility
EDT Latitude Longitude Course Direction KTS MPH feet Rate Location/Type
Thu 07:29:43 PM 42.8169 -73.8383 335° Northwest 208 239 3,200  Level Boston Center
Thu 07:30:08 PM 42.8144 -73.8750 265° West 208 239 4,200 2,047 Climbing Boston Center
Thu 07:31:08 PM 42.8028 -73.9597 259° West 223 257 6,100 1,950 Climbing Boston Center
Thu 07:32:08 PM 42.7892 -74.0500 258° West 242 278 8,100 2,000 Climbing Boston Center
Thu 07:33:00 PM 42.6634 -74.3933 220° Southwest  Level FlightAware Approximate
Thu 07:33:08 PM 42.7733 -74.1428 257° West 248 285 10,100  Level Boston Center
Thu 07:34:08 PM 42.7531 -74.2272 252° West 259 298 11,900 1,450 Climbing Boston Center
Thu 07:35:08 PM 42.7014 -74.3303 236° Southwest 287 330 13,000 1,100 Climbing Boston Center
Thu 07:36:08 PM 42.6542 -74.4192 234° Southwest 317 365 14,100 1,350 Climbing Boston Center
Thu 07:37:08 PM 42.5939 -74.5272 233° Southwest 327 376 15,700 1,450 Climbing Boston Center
Thu 07:38:08 PM 42.5483 -74.6131 234° Southwest 327 376 17,000 1,250 Climbing Boston Center
Thu 07:39:08 PM 42.4922 -74.7181 234° Southwest 327 376 18,200 989 Climbing Boston Center
Thu 07:41:10 PM 42.3906 -74.9036 233° Southwest 312 359 20,000 593 Climbing New York Center
Thu 07:42:10 PM 42.3394 -74.9983 234° Southwest 325 374 20,000  Level New York Center
Thu 07:43:11 PM 42.2792 -75.1094 234° Southwest 351 404 20,000  Level New York Center
Thu 07:44:11 PM 42.2169 -75.2172 232° Southwest 368 423 20,000  Level New York Center
Thu 07:45:11 PM 42.1586 -75.3281 235° Southwest 373 429 20,000  Level New York Center
Thu 07:46:09 PM 42.0958 -75.4411 233° Southwest 378 435 20,000  Level New York Center
Thu 07:47:09 PM 42.0353 -75.5511 233° Southwest 378 435 20,000  Level New York Center
Thu 07:48:10 PM 41.9747 -75.6583 233° Southwest 378 435 20,000  Level New York Center
Thu 07:49:10 PM 41.9139 -75.7683 233° Southwest 378 435 20,000  Level New York Center
Thu 07:50:11 PM 41.8508 -75.8803 233° Southwest 378 435 20,000  Level New York Center
Thu 07:51:09 PM 41.7900 -75.9869 233° Southwest 378 435 20,000 -254 Level New York Center
Thu 07:52:09 PM 41.7267 -76.1017 234° Southwest 378 435 19,500 -1,041 Descending New York Center
Thu 07:53:10 PM 41.6567 -76.2236 232° Southwest 378 435 17,900 -1,672 Descending New York Center
Thu 07:54:11 PM 41.6003 -76.3161 231° Southwest 378 435 16,100 -942 Descending New York Center
Thu 07:55:11 PM 41.5364 -76.4328 234° Southwest 373 429 16,000 -50 Descending New York Center
Thu 07:56:11 PM 41.4753 -76.5358 232° Southwest 367 422 16,000  Level New York Center
Thu 07:57:10 PM 41.4139 -76.6411 232° Southwest 372 428 16,000 -50 Level New York Center
Thu 07:58:10 PM 41.3522 -76.7492 233° Southwest 372 428 15,900  Descending New York Center
Thu 07:59:12 PM 41.2603 -76.7961 201° Southwest 352 405 16,000 101 Climbing New York Center
Thu 08:00:09 PM 41.1614 -76.8150 188° South 343 395 16,100 51 Climbing New York Center
Thu 08:01:09 PM 41.0647 -76.8311 187° South 354 407 16,100  Level New York Center
Thu 08:02:10 PM 40.9678 -76.8500 188° South 354 407 16,100  Level New York Center
Thu 08:03:10 PM 40.8794 -76.8667 188° South 359 413 16,100 -50 Level New York Center
Thu 08:04:09 PM 40.7697 -76.8897 189° South 359 413 16,000 -50 Descending New York Center
Thu 08:05:10 PM 40.6808 -76.9175 193° South 359 413 16,000  Level New York Center
Thu 08:06:10 PM 40.5750 -76.9517 194° South 366 421 16,000  Level New York Center
Thu 08:07:10 PM 40.4858 -76.9792 193° South 366 421 16,000  Level New York Center
Thu 08:08:11 PM 40.3800 -77.0106 193° South 361 415 16,000 50 Level New York Center
Thu 08:09:10 PM 40.2908 -77.0408 195° South 361 415 16,100 -809 Climbing New York Center
Thu 08:11:09 PM 40.0833 -77.1000 192° South 349 402 13,600 -1,240 Descending Potomac TRACON
Thu 08:12:09 PM 40.0000 -77.1333 197° South 341 392 12,400 -1,200 Descending Potomac TRACON
Thu 08:13:09 PM 39.9000 -77.1500 187° South 339 390 11,200 -1,140 Descending Potomac TRACON
Thu 08:14:10 PM 39.8167 -77.1833 197° South 323 372 10,100 -626 Descending Potomac TRACON
Thu 08:15:04 PM 39.7333 -77.2167 197° South 319 367 10,000 -50 Descending Potomac TRACON
Thu 08:16:10 PM 39.6500 -77.2833 212° Southwest 316 364 10,000 -95 Level Potomac TRACON
Thu 08:17:10 PM 39.5667 -77.3167 197° South 302 348 9,800 -750 Descending Potomac TRACON
Thu 08:18:10 PM 39.5000 -77.3500 201° Southwest 281 323 8,500 -1,289 Descending Potomac TRACON
Thu 08:19:11 PM 39.4333 -77.3667 191° South 269 310 7,200 -1,289 Descending Potomac TRACON
Thu 08:20:11 PM 39.3500 -77.4000 197° South 269 310 5,900 -1,100 Descending Potomac TRACON
Thu 08:21:11 PM 39.2833 -77.4333 201° Southwest 257 296 5,000 -446 Descending Potomac TRACON
Thu 08:22:12 PM 39.2167 -77.4500 191° South 232 267 5,000 -492 Level Potomac TRACON
Thu 08:23:13 PM 39.1500 -77.4500 180° South 214 246 4,000 -1,041 Descending Potomac TRACON
Thu 08:24:13 PM 39.1000 -77.4500 180° South 188 216 2,900 -1,000 Descending Potomac TRACON
Thu 08:25:13 PM 39.0500 -77.4500 180° South 168 193 2,000 -843 Descending Potomac TRACON
Thu 08:26:14 PM 39.0167 -77.4667 201° Southwest 128 147 1,200 -787 Descending Potomac TRACON

Login

Don't have an account? Register now (free) for customized features, flight alerts, and more!